Terminal Aerodrome Forecast
Issued by NWS Buffalo, NY

Home | Current Version | Previous Version | Text Only | Print | Product List | Glossary On
Versions: 1 2 3 4 5 6 7 8 9 10 11 12 13 14 15 16 17 18 19 20 21 22 23 24 25 26 27 28 29
650
FTUS41 KBUF 090715 AAA
TAFART
TAF AMD
KART 090715Z 0907/1006 06008KT 2SM -SN SCT015 BKN025
      TEMPO 0907/0909 1SM -SN
     FM091000 06008KT 6SM -SN BKN025
     FM091500 VRB04KT 6SM -SN BKN015=

USA.gov is the U.S. government's official web portal to all federal, state and local government web resources and services.